Time;durP1;ratioP1;P1;durP2;ratioP2;P2;SDS_P1;SDS_P2;PMS_P1;PMS_P2;Temp;Humidity;BMP_temperature;BMP_pressure;BME280_temperature;BME280_humidity;BME280_pressure;Samples;Min_cycle;Max_cycle;Signal;HPM_P1;HPM_P2
2022/02/22 00:00:38;;;;;;;13.57;8.57;;;19.00;98.80;;;;;;4155419;28;20104;-70
2022/02/22 00:02:44;;;;;;;16.60;9.30;;;19.00;99.10;;;;;;4162083;28;20045;-69
2022/02/22 00:04:52;;;;;;;15.85;9.77;;;19.10;99.00;;;;;;4160057;28;20045;-69
2022/02/22 00:06:56;;;;;;;15.43;10.43;;;19.00;99.10;;;;;;4163130;28;20510;-71
2022/02/22 00:09:01;;;;;;;13.90;10.02;;;19.00;99.10;;;;;;4163111;28;20065;-71
2022/02/22 00:11:07;;;;;;;14.63;9.60;;;19.10;98.90;;;;;;4158218;28;20053;-71
2022/02/22 00:13:11;;;;;;;14.15;10.48;;;18.90;98.80;;;;;;4163303;28;20042;-71
2022/02/22 00:15:17;;;;;;;13.63;9.88;;;19.00;98.60;;;;;;4163292;28;20132;-71
2022/02/22 00:17:25;;;;;;;13.82;9.45;;;18.80;98.80;;;;;;4163117;28;20037;-71
2022/02/22 00:19:33;;;;;;;15.02;10.25;;;18.80;98.40;;;;;;4163380;28;20125;-70
2022/02/22 00:21:37;;;;;;;13.07;9.60;;;18.70;98.60;;;;;;4162719;28;20060;-71
2022/02/22 00:23:46;;;;;;;14.93;9.38;;;18.80;98.60;;;;;;4163410;28;20049;-71
2022/02/22 00:25:50;;;;;;;12.55;9.05;;;18.70;98.60;;;;;;4162991;28;20052;-72
2022/02/22 00:27:54;;;;;;;19.33;10.00;;;18.60;99.10;;;;;;4162457;28;20478;-69
2022/02/22 00:30:03;;;;;;;22.77;10.35;;;18.90;98.80;;;;;;4163062;28;20041;-70
2022/02/22 00:32:08;;;;;;;33.42;10.45;;;18.90;98.50;;;;;;4155235;28;20496;-70
2022/02/22 00:34:12;;;;;;;17.20;9.15;;;19.20;98.10;;;;;;4155354;28;20076;-70
2022/02/22 00:36:21;;;;;;;15.27;9.13;;;19.10;97.20;;;;;;4156049;28;20061;-70
2022/02/22 00:38:25;;;;;;;14.98;9.07;;;19.00;97.90;;;;;;4162384;28;20095;-70
2022/02/22 00:40:33;;;;;;;13.00;9.52;;;19.20;97.80;;;;;;4156230;28;20042;-70
2022/02/22 00:42:39;;;;;;;15.55;9.73;;;19.10;97.70;;;;;;4162842;28;20056;-71
2022/02/22 00:44:44;;;;;;;13.57;9.35;;;19.10;98.00;;;;;;4162764;28;20037;-71
2022/02/22 00:46:48;;;;;;;12.77;9.15;;;19.20;97.80;;;;;;4162785;28;20432;-71
2022/02/22 00:48:57;;;;;;;13.38;9.35;;;19.10;96.80;;;;;;4162582;28;20120;-71
2022/02/22 00:51:01;;;;;;;12.27;8.73;;;18.90;97.40;;;;;;4160787;28;20038;-72
2022/02/22 00:53:06;;;;;;;11.88;8.10;;;18.80;97.50;;;;;;4159398;28;20049;-71
2022/02/22 00:55:15;;;;;;;12.20;8.13;;;18.90;97.30;;;;;;4161566;28;20060;-71
2022/02/22 00:57:22;;;;;;;11.45;8.15;;;18.90;97.00;;;;;;4162651;28;20042;-71
2022/02/22 00:59:26;;;;;;;13.27;7.38;;;18.90;97.10;;;;;;4155175;28;20447;-71
2022/02/22 01:01:31;;;;;;;13.52;8.00;;;19.00;97.30;;;;;;4160806;28;20049;-71
2022/02/22 01:03:37;;;;;;;10.32;7.05;;;19.10;96.80;;;;;;4161081;28;20053;-71
2022/02/22 01:05:42;;;;;;;10.95;6.30;;;19.30;96.40;;;;;;4154183;28;20455;-71
2022/02/22 01:07:49;;;;;;;15.38;7.47;;;19.40;95.90;;;;;;4162434;28;20656;-70
2022/02/22 01:09:53;;;;;;;10.95;6.65;;;19.30;96.10;;;;;;4162447;28;20052;-70
2022/02/22 01:11:57;;;;;;;8.70;6.10;;;19.40;95.90;;;;;;4155840;28;20056;-70
2022/02/22 01:14:03;;;;;;;8.45;6.20;;;19.10;95.50;;;;;;4162398;28;20671;-71
2022/02/22 01:16:12;;;;;;;9.93;6.70;;;19.00;95.90;;;;;;4162134;28;20049;-70
2022/02/22 01:18:16;;;;;;;8.18;6.10;;;18.80;96.20;;;;;;4162444;28;20045;-72
2022/02/22 01:20:23;;;;;;;8.77;6.00;;;18.80;96.40;;;;;;4161674;28;20099;-69
2022/02/22 01:22:30;;;;;;;10.82;5.97;;;18.80;96.20;;;;;;4163056;28;20047;-71
2022/02/22 01:24:34;;;;;;;10.10;5.55;;;19.00;96.20;;;;;;4162639;28;20077;-71
2022/02/22 01:26:39;;;;;;;7.03;5.00;;;19.10;95.60;;;;;;4162286;28;20107;-71
2022/02/22 01:28:45;;;;;;;7.32;4.97;;;19.20;95.20;;;;;;4161994;28;20052;-70
2022/02/22 01:30:49;;;;;;;6.53;5.10;;;19.30;94.80;;;;;;4161644;28;20111;-70
2022/02/22 01:32:55;;;;;;;7.53;5.30;;;19.40;94.70;;;;;;4162145;28;20084;-69
2022/02/22 01:35:02;;;;;;;7.30;4.70;;;19.50;95.10;;;;;;4149190;28;20046;-70
2022/02/22 01:37:07;;;;;;;6.85;4.55;;;19.50;94.40;;;;;;4161564;28;20052;-71
2022/02/22 01:39:12;;;;;;;5.75;4.15;;;19.60;94.40;;;;;;4161202;28;20064;-71
2022/02/22 01:41:20;;;;;;;6.03;4.20;;;19.80;93.90;;;;;;4161553;28;20045;-70
2022/02/22 01:43:24;;;;;;;8.43;5.32;;;19.60;94.20;;;;;;4154725;28;20079;-70
2022/02/22 01:45:28;;;;;;;6.68;4.60;;;19.60;94.80;;;;;;4153140;28;21261;-70
2022/02/22 01:47:33;;;;;;;7.35;5.00;;;19.80;94.50;;;;;;4160675;28;20046;-71
2022/02/22 01:49:38;;;;;;;6.57;4.07;;;19.70;93.90;;;;;;4157267;28;20132;-70
2022/02/22 01:51:44;;;;;;;7.38;4.50;;;19.40;93.80;;;;;;4164205;28;20767;-69
2022/02/22 01:53:49;;;;;;;5.18;3.92;;;19.50;94.40;;;;;;4159656;28;20526;-71
2022/02/22 01:55:54;;;;;;;7.68;4.35;;;19.60;93.90;;;;;;4152394;28;20045;-71
2022/02/22 01:58:00;;;;;;;6.50;4.60;;;19.70;94.00;;;;;;4162162;28;20121;-71
2022/02/22 02:00:08;;;;;;;9.00;4.35;;;19.80;93.90;;;;;;4164551;28;20099;-72
2022/02/22 02:02:16;;;;;;;6.32;4.72;;;19.80;93.80;;;;;;4163519;28;20088;-71
2022/02/22 02:04:28;;;;;;;6.07;4.65;;;19.60;94.30;;;;;;4162124;28;20056;-71
2022/02/22 02:06:34;;;;;;;5.85;4.22;;;19.80;94.30;;;;;;4164706;28;20103;-72
2022/02/22 02:08:38;;;;;;;6.70;4.22;;;19.90;94.00;;;;;;4168769;28;20080;-72
2022/02/22 02:10:43;;;;;;;6.25;4.10;;;20.00;93.70;;;;;;4170756;28;20419;-72
2022/02/22 02:12:52;;;;;;;6.57;4.63;;;20.00;93.80;;;;;;4157600;28;20048;-71
2022/02/22 02:14:56;;;;;;;5.53;4.32;;;20.10;93.70;;;;;;4166110;28;20041;-70
2022/02/22 02:17:05;;;;;;;6.40;5.07;;;20.00;93.70;;;;;;4168946;28;20033;-71
2022/02/22 02:19:14;;;;;;;6.05;4.50;;;20.10;94.20;;;;;;4169729;28;20041;-71
2022/02/22 02:21:18;;;;;;;11.50;4.97;;;20.30;93.80;;;;;;4168526;28;20483;-72
2022/02/22 02:23:24;;;;;;;9.00;5.35;;;20.50;93.50;;;;;;4162042;28;20463;-71
2022/02/22 02:25:31;;;;;;;7.22;5.03;;;20.50;93.30;;;;;;4166486;28;20044;-69
2022/02/22 02:27:37;;;;;;;9.88;5.82;;;20.30;94.00;;;;;;4167357;28;20560;-70
2022/02/22 02:29:44;;;;;;;8.95;5.43;;;20.40;93.80;;;;;;4166556;28;20437;-71
2022/02/22 02:31:52;;;;;;;9.40;5.53;;;20.30;93.30;;;;;;4162045;28;20083;-71
2022/02/22 02:33:58;;;;;;;6.47;4.75;;;20.50;93.50;;;;;;4170027;28;20780;-71
2022/02/22 02:36:05;;;;;;;8.82;4.88;;;20.70;93.30;;;;;;4166998;28;20091;-72
2022/02/22 02:38:10;;;;;;;9.13;5.72;;;20.80;93.00;;;;;;4168336;28;20044;-70
2022/02/22 02:40:16;;;;;;;7.47;5.30;;;20.90;93.00;;;;;;4167201;28;20083;-72
2022/02/22 02:42:23;;;;;;;7.10;4.72;;;21.10;92.90;;;;;;4169346;28;20388;-71
2022/02/22 02:44:29;;;;;;;7.60;5.10;;;20.70;92.40;;;;;;4172708;28;20103;-72
2022/02/22 02:46:34;;;;;;;8.85;5.00;;;20.80;93.10;;;;;;4171609;28;20118;-71
2022/02/22 02:48:40;;;;;;;7.28;4.50;;;21.00;92.60;;;;;;4171503;28;20219;-71
2022/02/22 02:50:47;;;;;;;8.82;4.85;;;20.90;92.50;;;;;;4171878;28;20056;-70
2022/02/22 02:52:52;;;;;;;5.78;4.10;;;21.00;92.80;;;;;;4170079;28;20046;-70
2022/02/22 02:54:58;;;;;;;7.93;4.50;;;21.10;92.50;;;;;;4170628;28;20046;-70
2022/02/22 02:57:05;;;;;;;7.65;4.97;;;21.20;92.70;;;;;;4170924;28;20041;-70
2022/02/22 02:59:10;;;;;;;7.85;4.00;;;21.30;92.50;;;;;;4167922;28;20057;-70
2022/02/22 03:01:17;;;;;;;7.20;3.90;;;21.30;92.20;;;;;;4164004;28;20420;-70
2022/02/22 03:03:24;;;;;;;6.63;3.80;;;21.20;92.30;;;;;;4171550;28;20159;-69
2022/02/22 03:05:28;;;;;;;5.50;3.65;;;21.10;92.50;;;;;;4166905;28;20049;-70
2022/02/22 03:07:33;;;;;;;4.93;3.50;;;21.20;92.10;;;;;;4167670;28;20061;-70
2022/02/22 03:09:39;;;;;;;5.25;3.53;;;21.40;91.90;;;;;;4167168;28;20102;-71
2022/02/22 03:11:45;;;;;;;5.25;3.90;;;21.60;92.10;;;;;;4170885;28;20047;-71
2022/02/22 03:13:52;;;;;;;7.65;4.00;;;21.50;91.50;;;;;;4172190;28;20664;-70
2022/02/22 03:15:59;;;;;;;5.28;3.95;;;21.40;92.10;;;;;;4170844;28;20129;-70
2022/02/22 03:18:04;;;;;;;4.90;3.47;;;21.30;91.90;;;;;;4168942;28;20514;-71
2022/02/22 03:20:09;;;;;;;5.20;3.65;;;21.30;91.80;;;;;;4166116;28;20589;-71
2022/02/22 03:22:16;;;;;;;5.32;3.80;;;21.30;91.60;;;;;;4172919;28;20059;-71
2022/02/22 03:24:20;;;;;;;6.82;4.95;;;21.50;91.60;;;;;;4167543;28;20182;-71
2022/02/22 03:26:27;;;;;;;6.05;4.30;;;21.50;91.70;;;;;;4168002;28;20379;-71
2022/02/22 03:28:33;;;;;;;4.97;3.70;;;21.50;91.60;;;;;;4162635;28;20511;-71
2022/02/22 03:30:38;;;;;;;5.70;3.63;;;21.50;91.50;;;;;;4166284;28;20046;-71
2022/02/22 03:32:42;;;;;;;5.18;3.67;;;21.60;91.80;;;;;;4165511;28;20210;-71
2022/02/22 03:34:49;;;;;;;5.85;4.22;;;21.60;91.70;;;;;;4164386;28;20045;-71
2022/02/22 03:36:55;;;;;;;5.78;4.03;;;21.50;91.40;;;;;;4165788;28;20041;-71
2022/02/22 03:39:02;;;;;;;5.32;3.65;;;21.60;91.90;;;;;;4164164;28;20061;-71
2022/02/22 03:41:06;;;;;;;5.28;4.10;;;21.70;91.80;;;;;;4163577;28;20049;-70
2022/02/22 03:43:15;;;;;;;6.05;3.83;;;21.40;91.70;;;;;;4162140;28;20049;-71
2022/02/22 03:45:20;;;;;;;6.25;4.00;;;21.70;92.00;;;;;;4163216;28;20168;-71
2022/02/22 03:47:29;;;;;;;5.93;4.10;;;21.80;91.50;;;;;;4162818;28;20056;-71
2022/02/22 03:49:33;;;;;;;10.25;4.20;;;21.80;91.40;;;;;;4167673;28;20404;-70
2022/02/22 03:51:40;;;;;;;5.05;4.00;;;21.90;91.80;;;;;;4164375;28;20053;-71
2022/02/22 03:53:47;;;;;;;5.68;3.97;;;22.10;91.50;;;;;;4166195;28;20037;-70
2022/02/22 03:55:52;;;;;;;6.13;4.30;;;22.20;91.10;;;;;;4167558;28;20477;-70
2022/02/22 03:57:58;;;;;;;6.28;4.80;;;22.20;91.50;;;;;;4166621;28;20523;-70
2022/02/22 04:00:08;;;;;;;7.93;5.30;;;22.10;91.50;;;;;;4167169;28;20442;-69
2022/02/22 04:02:12;;;;;;;7.95;5.00;;;21.90;91.80;;;;;;4161838;28;20049;-70
2022/02/22 04:04:19;;;;;;;7.93;5.25;;;22.10;92.40;;;;;;4161533;28;20081;-69
2022/02/22 04:06:26;;;;;;;7.82;4.85;;;22.00;92.30;;;;;;4157491;28;20053;-70
2022/02/22 04:08:32;;;;;;;8.48;4.53;;;21.80;92.20;;;;;;4162119;28;20084;-70
2022/02/22 04:10:39;;;;;;;6.43;4.57;;;22.00;91.80;;;;;;4158237;28;20489;-70
2022/02/22 04:12:43;;;;;;;6.47;4.93;;;22.20;91.30;;;;;;4162824;28;20148;-70
2022/02/22 04:14:47;;;;;;;8.38;5.63;;;22.10;91.50;;;;;;4166398;28;20075;-70
2022/02/22 04:16:54;;;;;;;7.85;5.13;;;22.20;91.80;;;;;;4161168;28;20144;-70
2022/02/22 04:19:00;;;;;;;6.25;4.55;;;22.30;91.90;;;;;;4165146;28;20387;-70
2022/02/22 04:21:05;;;;;;;8.68;5.32;;;22.50;91.60;;;;;;4169993;28;20601;-72
2022/02/22 04:23:09;;;;;;;9.93;5.60;;;22.50;91.10;;;;;;4170436;28;20511;-70
2022/02/22 04:25:18;;;;;;;10.07;5.35;;;22.20;91.40;;;;;;4169816;28;20106;-70
2022/02/22 04:27:22;;;;;;;7.97;5.47;;;22.20;91.70;;;;;;4169248;28;20057;-71
2022/02/22 04:29:29;;;;;;;7.78;4.75;;;22.30;91.30;;;;;;4171244;28;20056;-70
2022/02/22 04:31:38;;;;;;;6.85;4.78;;;22.10;91.10;;;;;;4170461;28;20079;-70
2022/02/22 04:33:42;;;;;;;9.55;4.93;;;22.30;91.50;;;;;;4170411;28;20465;-70
2022/02/22 04:35:49;;;;;;;5.47;4.07;;;22.20;91.10;;;;;;4152007;28;20046;-70
2022/02/22 04:37:57;;;;;;;9.93;4.65;;;22.30;91.40;;;;;;4163886;28;20194;-69
2022/02/22 04:40:03;;;;;;;8.52;5.00;;;22.40;91.60;;;;;;4170451;28;20040;-69
2022/02/22 04:42:12;;;;;;;6.82;5.00;;;22.40;91.20;;;;;;4165877;28;20060;-71
2022/02/22 04:44:18;;;;;;;9.10;4.95;;;22.40;91.00;;;;;;4170031;28;20060;-71
2022/02/22 04:46:23;;;;;;;6.38;4.43;;;22.40;91.20;;;;;;4164640;28;20040;-71
2022/02/22 04:48:28;;;;;;;10.52;5.03;;;22.60;91.10;;;;;;4169626;28;20076;-71
2022/02/22 04:50:32;;;;;;;6.88;4.88;;;22.60;91.10;;;;;;4170029;28;20057;-69
2022/02/22 04:52:37;;;;;;;10.07;4.50;;;22.70;91.00;;;;;;4169370;28;20045;-69
2022/02/22 04:54:41;;;;;;;8.45;4.72;;;22.70;91.50;;;;;;4169832;28;20095;-71
2022/02/22 04:56:47;;;;;;;7.63;4.47;;;22.80;91.00;;;;;;4162606;28;20050;-71
2022/02/22 04:58:52;;;;;;;6.07;4.35;;;22.90;91.20;;;;;;4163941;28;20037;-71
2022/02/22 05:00:58;;;;;;;7.00;4.45;;;22.80;90.40;;;;;;4167395;28;20045;-70
2022/02/22 05:03:05;;;;;;;5.32;4.28;;;22.70;90.90;;;;;;4170022;28;20037;-70
2022/02/22 05:05:10;;;;;;;5.75;4.40;;;22.80;90.90;;;;;;4165411;28;20053;-68
2022/02/22 05:07:17;;;;;;;6.47;4.00;;;22.90;90.60;;;;;;4167583;28;20079;-71
2022/02/22 05:09:25;;;;;;;9.60;5.30;;;23.00;90.80;;;;;;4171206;28;20056;-71
2022/02/22 05:11:29;;;;;;;6.55;4.90;;;23.10;91.00;;;;;;4169096;28;20135;-71
2022/02/22 05:13:37;;;;;;;6.90;5.47;;;23.20;90.20;;;;;;4170280;28;20048;-71
2022/02/22 05:15:43;;;;;;;7.93;5.18;;;22.80;90.70;;;;;;4169974;28;20551;-71
2022/02/22 05:17:48;;;;;;;12.60;5.57;;;23.00;90.60;;;;;;4169785;28;20064;-70
2022/02/22 05:19:54;;;;;;;6.75;4.65;;;23.10;90.80;;;;;;4170006;28;20133;-70
2022/02/22 05:28:08;;;;;;;10.55;5.18;;;23.30;90.40;;;;;;4152317;28;21175;-71
2022/02/22 05:30:14;;;;;;;5.93;4.82;;;23.50;90.70;;;;;;4164431;28;20124;-71
2022/02/22 05:32:21;;;;;;;26.38;4.88;;;23.60;90.60;;;;;;4164940;28;20141;-71
2022/02/22 05:34:30;;;;;;;6.20;4.70;;;23.60;90.40;;;;;;4172815;28;20380;-72
2022/02/22 05:36:35;;;;;;;6.97;4.57;;;23.50;90.30;;;;;;4162970;28;20045;-72
2022/02/22 05:38:40;;;;;;;5.95;4.70;;;23.60;90.40;;;;;;4171294;28;20057;-72
2022/02/22 05:40:47;;;;;;;6.47;4.60;;;23.50;90.20;;;;;;4169609;28;20045;-71
2022/02/22 05:42:51;;;;;;;5.05;4.10;;;23.20;90.40;;;;;;4168263;28;20049;-71
2022/02/22 05:44:58;;;;;;;5.35;4.05;;;23.30;90.70;;;;;;4167492;28;20049;-71
2022/02/22 05:47:07;;;;;;;10.80;4.40;;;23.50;90.30;;;;;;4167174;28;20063;-70
2022/02/22 05:49:12;;;;;;;6.05;3.88;;;23.50;90.40;;;;;;4166133;28;20053;-70
2022/02/22 05:51:18;;;;;;;7.30;3.58;;;23.50;90.50;;;;;;4169163;28;20120;-71
2022/02/22 05:53:23;;;;;;;6.95;4.30;;;23.70;90.40;;;;;;4166555;28;20640;-71
2022/02/22 05:55:28;;;;;;;6.28;3.97;;;23.70;89.90;;;;;;4167885;28;20038;-71
2022/02/22 05:57:35;;;;;;;4.93;3.83;;;23.80;90.10;;;;;;4166360;28;20041;-71
2022/02/22 05:59:42;;;;;;;9.25;3.97;;;23.90;89.80;;;;;;4163234;28;20056;-71
2022/02/22 06:01:47;;;;;;;4.65;3.92;;;23.80;90.00;;;;;;4164169;28;20128;-71
2022/02/22 06:03:54;;;;;;;6.20;3.97;;;23.80;90.20;;;;;;4163927;28;20063;-71
2022/02/22 06:06:01;;;;;;;7.60;4.18;;;23.70;90.30;;;;;;4164287;28;20048;-71
2022/02/22 06:08:06;;;;;;;6.40;3.70;;;23.70;90.30;;;;;;4166830;28;20121;-71
2022/02/22 06:10:14;;;;;;;28.15;4.82;;;23.80;90.20;;;;;;4168645;28;20045;-71
2022/02/22 06:12:21;;;;;;;5.57;4.03;;;23.80;90.30;;;;;;4167917;28;20051;-71
2022/02/22 06:14:25;;;;;;;4.75;3.80;;;23.70;90.40;;;;;;4167947;28;20703;-71
2022/02/22 06:16:32;;;;;;;6.13;4.18;;;23.70;90.10;;;;;;4165090;28;20041;-71
2022/02/22 06:18:39;;;;;;;6.15;4.43;;;23.90;90.20;;;;;;4166891;28;20591;-71
2022/02/22 06:20:44;;;;;;;4.93;4.00;;;24.10;90.20;;;;;;4165672;28;20488;-70
2022/02/22 06:22:50;;;;;;;8.05;3.85;;;24.20;89.90;;;;;;4171804;28;20491;-73
2022/02/22 06:24:56;;;;;;;5.90;4.00;;;24.20;90.10;;;;;;4168500;28;20049;-72
2022/02/22 06:27:01;;;;;;;6.30;3.85;;;24.20;90.00;;;;;;4169112;28;20057;-72
2022/02/22 06:29:07;;;;;;;5.47;3.92;;;24.20;90.20;;;;;;4167075;28;20129;-72
2022/02/22 06:31:13;;;;;;;12.50;4.03;;;24.20;90.60;;;;;;4171283;28;20041;-72
2022/02/22 06:33:18;;;;;;;5.03;4.03;;;24.30;90.20;;;;;;4168548;28;20037;-72
2022/02/22 06:35:25;;;;;;;5.13;4.07;;;24.30;89.80;;;;;;4167721;28;20094;-72
2022/02/22 06:37:31;;;;;;;4.88;3.67;;;24.20;90.10;;;;;;4169107;28;20687;-71
2022/02/22 06:39:36;;;;;;;7.82;5.38;;;24.20;90.10;;;;;;4168319;28;20080;-72
2022/02/22 06:41:43;;;;;;;7.10;4.90;;;24.20;90.40;;;;;;4158897;28;20455;-72
2022/02/22 06:43:50;;;;;;;6.05;4.22;;;24.30;89.90;;;;;;4163909;28;20057;-73
2022/02/22 06:45:54;;;;;;;6.40;4.25;;;24.40;90.10;;;;;;4180628;28;20060;-72
2022/02/22 06:48:04;;;;;;;7.13;4.15;;;24.50;90.20;;;;;;4164253;28;20038;-73
2022/02/22 06:50:10;;;;;;;6.88;4.35;;;24.50;89.90;;;;;;4167056;28;20049;-73
2022/02/22 06:52:15;;;;;;;10.98;4.32;;;24.60;90.00;;;;;;4170465;28;20470;-72
2022/02/22 06:54:22;;;;;;;5.30;3.95;;;24.80;89.70;;;;;;4164941;28;21636;-72
2022/02/22 06:56:28;;;;;;;11.25;4.88;;;24.80;89.20;;;;;;4168153;28;20053;-72
2022/02/22 06:58:34;;;;;;;7.00;4.40;;;24.90;89.10;;;;;;4168151;28;20045;-72
2022/02/22 07:00:43;;;;;;;8.85;4.70;;;24.80;88.00;;;;;;4165765;28;20049;-72
2022/02/22 07:02:49;;;;;;;5.35;4.40;;;24.80;89.00;;;;;;4167187;28;20053;-71
2022/02/22 07:04:54;;;;;;;5.90;4.78;;;24.80;89.50;;;;;;4167322;28;20060;-72
2022/02/22 07:07:02;;;;;;;6.72;4.13;;;24.70;89.10;;;;;;4165805;28;20052;-72
2022/02/22 07:09:09;;;;;;;6.05;4.20;;;24.80;89.30;;;;;;4162342;28;20049;-73
2022/02/22 07:11:13;;;;;;;5.20;4.10;;;24.80;88.60;;;;;;4166929;28;20049;-73
2022/02/22 07:13:19;;;;;;;5.72;3.72;;;24.80;88.90;;;;;;4167295;28;20033;-73
2022/02/22 07:15:25;;;;;;;5.85;4.45;;;24.70;88.50;;;;;;4161423;28;20041;-72
2022/02/22 07:17:30;;;;;;;6.50;4.28;;;24.60;89.40;;;;;;4163516;28;20068;-71
2022/02/22 07:19:37;;;;;;;7.22;4.75;;;24.60;89.40;;;;;;4169951;28;20075;-70
2022/02/22 07:21:43;;;;;;;7.43;4.25;;;24.60;89.80;;;;;;4169460;28;20056;-72
2022/02/22 07:23:48;;;;;;;5.28;4.07;;;24.70;89.80;;;;;;4168506;28;20037;-71
2022/02/22 07:25:54;;;;;;;6.93;4.40;;;24.80;89.70;;;;;;4172580;28;20056;-72
2022/02/22 07:28:01;;;;;;;5.18;4.20;;;24.60;89.50;;;;;;4176693;28;20049;-72
2022/02/22 07:30:14;;;;;;;6.53;4.60;;;24.60;89.50;;;;;;4174027;28;20488;-71
2022/02/22 07:32:21;;;;;;;6.70;4.45;;;24.60;89.70;;;;;;4167741;28;20107;-72
2022/02/22 07:34:28;;;;;;;6.95;4.43;;;24.60;88.70;;;;;;4174741;28;20040;-71
2022/02/22 07:36:32;;;;;;;5.78;4.32;;;24.60;89.00;;;;;;4158082;28;20046;-71
2022/02/22 07:38:37;;;;;;;15.02;5.80;;;24.80;88.80;;;;;;4159769;28;20057;-71
2022/02/22 07:40:41;;;;;;;8.52;4.40;;;24.80;89.30;;;;;;4160987;28;20504;-71
2022/02/22 07:42:46;;;;;;;6.10;4.30;;;24.80;89.30;;;;;;4162405;28;20057;-70
2022/02/22 07:44:53;;;;;;;5.15;4.22;;;24.90;89.90;;;;;;4163272;28;20045;-70
2022/02/22 07:47:00;;;;;;;9.02;4.15;;;24.80;88.60;;;;;;4169005;28;20045;-70
2022/02/22 07:49:06;;;;;;;5.35;4.18;;;24.80;89.10;;;;;;4201362;28;20101;-70
2022/02/22 07:51:16;;;;;;;13.18;5.07;;;24.90;88.90;;;;;;4173715;28;20111;-71
2022/02/22 07:53:23;;;;;;;6.78;4.40;;;24.90;88.60;;;;;;4170374;28;20053;-71
2022/02/22 07:55:27;;;;;;;7.70;4.90;;;24.90;89.20;;;;;;4165467;28;20124;-71
2022/02/22 07:57:33;;;;;;;8.23;4.35;;;24.90;88.80;;;;;;4171088;28;20064;-72
2022/02/22 07:59:40;;;;;;;5.78;4.63;;;24.90;88.60;;;;;;4171109;28;20088;-71
2022/02/22 08:01:45;;;;;;;9.15;4.43;;;25.00;88.60;;;;;;4173362;28;20057;-72
2022/02/22 08:03:52;;;;;;;6.57;4.70;;;25.00;88.30;;;;;;4171174;28;20041;-71
2022/02/22 08:05:59;;;;;;;6.07;4.18;;;25.00;89.20;;;;;;4169135;28;20715;-72
2022/02/22 08:08:05;;;;;;;7.00;4.60;;;25.10;88.50;;;;;;4174818;28;20069;-72
2022/02/22 08:10:12;;;;;;;6.57;5.03;;;25.10;88.30;;;;;;4169176;28;20133;-71
2022/02/22 08:12:18;;;;;;;9.13;5.10;;;25.10;89.00;;;;;;4169034;28;20678;-71
2022/02/22 08:14:23;;;;;;;6.97;4.68;;;25.10;88.70;;;;;;4170939;28;20049;-71
2022/02/22 08:16:29;;;;;;;7.05;4.70;;;25.20;88.80;;;;;;4171243;28;20049;-70
2022/02/22 08:18:38;;;;;;;10.13;4.78;;;25.20;88.10;;;;;;4171079;28;20384;-71
2022/02/22 08:20:43;;;;;;;7.18;4.47;;;25.20;88.40;;;;;;4167175;28;20047;-70
2022/02/22 08:22:51;;;;;;;5.40;4.65;;;25.30;88.40;;;;;;4167662;28;20060;-70
2022/02/22 08:24:57;;;;;;;5.70;4.88;;;25.30;88.10;;;;;;4170877;28;20072;-70
2022/02/22 08:27:03;;;;;;;6.55;5.30;;;25.30;87.60;;;;;;4169777;28;20646;-71
2022/02/22 08:29:08;;;;;;;7.00;4.70;;;25.30;87.90;;;;;;4168527;28;20045;-70
2022/02/22 08:31:16;;;;;;;6.13;4.93;;;25.30;88.40;;;;;;4169819;28;20045;-70
2022/02/22 08:33:20;;;;;;;7.28;4.75;;;25.40;88.30;;;;;;4169361;28;20041;-70
2022/02/22 08:35:27;;;;;;;6.03;4.88;;;25.40;88.00;;;;;;4170748;28;20042;-71
2022/02/22 08:37:34;;;;;;;6.53;5.05;;;25.50;88.40;;;;;;4169463;28;20422;-71
2022/02/22 08:39:39;;;;;;;8.30;5.30;;;25.50;88.30;;;;;;4168230;28;20595;-70
2022/02/22 08:41:49;;;;;;;10.02;5.55;;;25.50;88.20;;;;;;4151781;28;20065;-70
2022/02/22 08:43:53;;;;;;;7.32;5.25;;;25.50;88.40;;;;;;4166919;28;20071;-70
2022/02/22 08:46:01;;;;;;;8.00;4.82;;;25.50;88.60;;;;;;4169492;28;20114;-70
2022/02/22 08:48:09;;;;;;;7.35;5.32;;;25.50;88.00;;;;;;4172020;28;20033;-70
2022/02/22 08:50:16;;;;;;;6.65;5.28;;;25.40;87.70;;;;;;4165856;28;20045;-70
2022/02/22 08:52:20;;;;;;;9.18;5.55;;;25.40;87.60;;;;;;4166588;28;20503;-71
2022/02/22 08:54:27;;;;;;;7.72;5.15;;;25.40;88.40;;;;;;4163498;28;20045;-71
2022/02/22 08:56:34;;;;;;;8.85;5.28;;;25.40;87.40;;;;;;4169347;28;20045;-72
2022/02/22 08:58:41;;;;;;;7.63;5.68;;;25.30;88.00;;;;;;4164961;28;20045;-71
2022/02/22 09:00:48;;;;;;;7.93;5.15;;;25.30;87.80;;;;;;4166905;28;20041;-71
2022/02/22 09:02:57;;;;;;;7.60;5.43;;;25.40;87.70;;;;;;4158277;28;20048;-71
2022/02/22 09:05:02;;;;;;;6.50;5.45;;;25.40;87.70;;;;;;4169105;28;20045;-70
2022/02/22 09:07:07;;;;;;;8.93;5.65;;;25.40;87.90;;;;;;4168500;28;20061;-70
2022/02/22 09:09:11;;;;;;;7.03;5.60;;;25.40;87.70;;;;;;4169431;28;20369;-71
2022/02/22 09:11:19;;;;;;;8.75;4.85;;;25.50;87.70;;;;;;4168773;28;20041;-70
2022/02/22 09:13:26;;;;;;;8.45;5.78;;;25.60;87.60;;;;;;4169927;28;20064;-70
2022/02/22 09:15:32;;;;;;;8.55;6.18;;;25.50;87.90;;;;;;4168773;28;20041;-70
2022/02/22 09:17:39;;;;;;;8.73;5.47;;;25.40;87.90;;;;;;4166613;28;20075;-70
2022/02/22 09:19:45;;;;;;;7.97;5.15;;;25.30;88.00;;;;;;4169040;28;20045;-70
2022/02/22 09:21:50;;;;;;;7.30;5.68;;;25.30;88.30;;;;;;4166948;28;20752;-70
2022/02/22 09:23:57;;;;;;;9.68;5.78;;;25.20;88.60;;;;;;4168539;28;20129;-70
2022/02/22 09:26:04;;;;;;;9.20;6.10;;;25.30;88.60;;;;;;4168575;28;20128;-70
2022/02/22 09:28:09;;;;;;;6.53;5.63;;;25.40;88.00;;;;;;4168801;28;20111;-70
2022/02/22 09:30:15;;;;;;;10.77;5.68;;;25.40;88.50;;;;;;4165231;28;20033;-70
2022/02/22 09:32:20;;;;;;;7.25;5.55;;;25.40;88.40;;;;;;4165237;28;20057;-70
2022/02/22 09:34:25;;;;;;;17.50;6.80;;;25.40;88.30;;;;;;4161317;28;20057;-70
2022/02/22 09:36:31;;;;;;;9.00;6.38;;;25.40;88.40;;;;;;4168361;28;20084;-70
2022/02/22 09:38:38;;;;;;;7.65;6.00;;;25.40;87.90;;;;;;4168458;28;20092;-70
2022/02/22 09:40:46;;;;;;;7.93;6.00;;;25.40;88.70;;;;;;4167067;28;20077;-71
2022/02/22 09:42:55;;;;;;;9.48;6.13;;;25.40;88.00;;;;;;4163806;28;20090;-72
2022/02/22 09:45:05;;;;;;;8.75;6.35;;;25.40;88.90;;;;;;4163950;28;20037;-71
2022/02/22 09:47:10;;;;;;;9.73;6.13;;;25.50;88.70;;;;;;4167418;28;20067;-71
2022/02/22 09:49:24;;;;;;;8.93;6.00;;;25.50;88.30;;;;;;4168131;28;20049;-71
2022/02/22 09:51:31;;;;;;;8.23;6.00;;;25.50;88.60;;;;;;4166880;28;20049;-72
2022/02/22 09:53:37;;;;;;;8.40;6.28;;;25.50;88.80;;;;;;4164336;28;20046;-71
2022/02/22 09:55:44;;;;;;;12.52;6.35;;;25.60;89.10;;;;;;4168471;28;20072;-71
2022/02/22 09:57:52;;;;;;;7.32;5.90;;;25.60;89.60;;;;;;4167644;28;20049;-72
2022/02/22 09:59:56;;;;;;;8.88;5.47;;;25.60;89.50;;;;;;4168024;28;20129;-72
2022/02/22 10:02:03;;;;;;;7.25;5.90;;;25.60;88.90;;;;;;4168644;28;20073;-71
2022/02/22 10:04:10;;;;;;;8.50;6.25;;;25.50;87.80;;;;;;4167710;28;20072;-71
2022/02/22 10:06:23;;;;;;;10.70;6.30;;;25.40;88.00;;;;;;4164252;28;20046;-72
2022/02/22 10:08:32;;;;;;;7.93;5.88;;;25.40;88.20;;;;;;4165153;28;20049;-72
2022/02/22 10:10:41;;;;;;;8.40;6.18;;;25.40;88.70;;;;;;4164496;28;20403;-72
2022/02/22 10:12:54;;;;;;;7.68;6.18;;;25.40;88.40;;;;;;4165498;28;20048;-72
2022/02/22 10:15:01;;;;;;;8.73;6.30;;;25.40;88.80;;;;;;4168474;28;20049;-71
2022/02/22 10:17:08;;;;;;;9.95;6.05;;;25.40;88.60;;;;;;4166938;28;20065;-69
2022/02/22 10:19:16;;;;;;;10.35;6.25;;;25.40;88.60;;;;;;4166740;28;20041;-69
2022/02/22 10:21:22;;;;;;;7.97;5.95;;;25.50;88.30;;;;;;4168236;28;20068;-70
2022/02/22 10:23:30;;;;;;;9.52;5.95;;;25.40;88.30;;;;;;4168009;28;20385;-70
2022/02/22 10:25:36;;;;;;;8.63;6.07;;;25.30;88.80;;;;;;4167102;28;20070;-70
2022/02/22 10:27:49;;;;;;;7.80;5.97;;;25.20;88.90;;;;;;4165884;28;20060;-70
2022/02/22 10:29:59;;;;;;;9.40;5.68;;;25.30;88.30;;;;;;4163926;28;20064;-69
2022/02/22 10:32:15;;;;;;;6.97;5.68;;;25.20;88.50;;;;;;4167402;28;20045;-69
2022/02/22 10:34:31;;;;;;;8.52;5.75;;;25.30;88.50;;;;;;4168196;28;20460;-69
2022/02/22 10:36:44;;;;;;;9.82;5.85;;;25.30;88.80;;;;;;4166081;28;20049;-70
2022/02/22 10:38:48;;;;;;;7.95;5.82;;;25.30;88.20;;;;;;4166387;28;20057;-70
2022/02/22 10:41:01;;;;;;;10.65;5.90;;;25.30;88.80;;;;;;4169960;28;20054;-70
2022/02/22 10:43:08;;;;;;;21.17;13.93;;;25.30;88.80;;;;;;4160346;28;20042;-71
2022/02/22 10:45:13;;;;;;;14.43;10.27;;;25.30;88.90;;;;;;4163947;28;20038;-69
2022/02/22 10:47:21;;;;;;;14.43;9.52;;;25.30;89.10;;;;;;4165863;28;20060;-71
2022/02/22 10:49:32;;;;;;;8.27;6.43;;;25.20;89.30;;;;;;4168125;28;20045;-70
2022/02/22 10:51:40;;;;;;;7.80;6.10;;;25.10;89.50;;;;;;4167758;28;20579;-70
2022/02/22 10:53:47;;;;;;;8.70;6.50;;;25.10;89.50;;;;;;4168104;28;20101;-70
2022/02/22 10:55:52;;;;;;;9.00;6.30;;;25.10;90.10;;;;;;4171341;28;20103;-71
2022/02/22 10:57:57;;;;;;;9.18;5.63;;;25.00;90.10;;;;;;4170927;28;20041;-70
2022/02/22 11:00:03;;;;;;;9.80;7.00;;;25.00;90.30;;;;;;4170958;28;20059;-69
2022/02/22 11:02:09;;;;;;;8.82;6.15;;;25.00;90.20;;;;;;4170687;28;20141;-68